Time;durP1;ratioP1;P1;durP2;ratioP2;P2;SDS_P1;SDS_P2;PMS_P1;PMS_P2;Temp;Humidity;BMP_temperature;BMP_pressure;BME280_temperature;BME280_humidity;BME280_pressure;Samples;Min_cycle;Max_cycle;Signal;HPM_P1;HPM_P2
2024/02/24 00:01:14;;;;;;;10.77;5.70;;;9.00;99.90;;;;;;4161546;28;20367;-60
2024/02/24 00:03:16;;;;;;;8.23;5.60;;;9.00;99.90;;;;;;4160610;28;20556;-60
2024/02/24 00:05:17;;;;;;;7.77;4.87;;;9.00;99.90;;;;;;4161144;28;20079;-60
2024/02/24 00:07:18;;;;;;;8.10;5.17;;;8.90;99.90;;;;;;4161827;28;20029;-60
2024/02/24 00:09:19;;;;;;;8.47;5.07;;;8.90;99.90;;;;;;4160051;28;20044;-61
2024/02/24 00:11:20;;;;;;;9.60;5.80;;;9.00;99.90;;;;;;4162017;28;20076;-58
2024/02/24 00:13:22;;;;;;;8.43;5.77;;;9.00;99.90;;;;;;4160143;28;20045;-60
2024/02/24 00:15:23;;;;;;;12.97;5.43;;;8.90;99.90;;;;;;4162084;28;20091;-57
2024/02/24 00:17:24;;;;;;;9.70;5.93;;;8.80;99.90;;;;;;4159947;28;20042;-61
2024/02/24 00:19:25;;;;;;;9.17;5.33;;;8.80;99.90;;;;;;4162212;28;20034;-54
2024/02/24 00:21:27;;;;;;;8.23;5.33;;;8.90;99.90;;;;;;4160127;28;20444;-56
2024/02/24 00:23:29;;;;;;;9.10;5.07;;;8.90;99.90;;;;;;4161741;28;20075;-57
2024/02/24 00:25:30;;;;;;;8.90;5.40;;;9.00;99.90;;;;;;4160198;28;20088;-56
2024/02/24 00:27:32;;;;;;;10.47;5.47;;;8.90;99.90;;;;;;4161436;28;20523;-57
2024/02/24 00:29:33;;;;;;;8.30;5.60;;;8.90;99.90;;;;;;4161185;28;20437;-57
2024/02/24 00:31:34;;;;;;;9.53;5.20;;;9.00;99.90;;;;;;4161335;28;20033;-57
2024/02/24 00:33:35;;;;;;;7.30;4.77;;;9.00;99.90;;;;;;4161278;28;20037;-58
2024/02/24 00:35:38;;;;;;;8.90;4.50;;;9.10;99.90;;;;;;4161037;28;20103;-60
2024/02/24 00:37:40;;;;;;;8.43;5.57;;;9.20;99.90;;;;;;4161172;28;20017;-61
2024/02/24 00:39:41;;;;;;;8.37;5.23;;;9.20;99.90;;;;;;4160653;28;20080;-61
2024/02/24 00:41:42;;;;;;;7.83;4.87;;;9.30;99.90;;;;;;4160727;28;20500;-62
2024/02/24 00:43:44;;;;;;;7.43;5.10;;;9.30;99.90;;;;;;4160413;28;20523;-60
2024/02/24 00:45:47;;;;;;;9.50;5.43;;;9.40;99.90;;;;;;4161816;28;20033;-58
2024/02/24 00:47:48;;;;;;;7.77;4.73;;;9.40;99.90;;;;;;4159516;28;20107;-59
2024/02/24 00:49:49;;;;;;;11.37;6.00;;;9.40;99.90;;;;;;4161547;28;20440;-58
2024/02/24 00:51:50;;;;;;;10.37;5.53;;;9.40;99.90;;;;;;4160324;28;20079;-61
2024/02/24 00:53:51;;;;;;;10.30;5.50;;;9.40;99.90;;;;;;4160854;28;20037;-59
2024/02/24 00:55:53;;;;;;;9.67;5.40;;;9.30;99.90;;;;;;4159779;28;20045;-60
2024/02/24 00:57:54;;;;;;;11.77;6.10;;;9.30;99.90;;;;;;4161623;28;20068;-61
2024/02/24 00:59:55;;;;;;;9.10;5.20;;;9.20;99.90;;;;;;4160718;28;20547;-58
2024/02/24 01:01:57;;;;;;;10.67;6.20;;;9.20;99.90;;;;;;4161361;28;20029;-59
2024/02/24 01:03:58;;;;;;;6.47;4.40;;;9.10;99.90;;;;;;4159871;28;20382;-59
2024/02/24 01:05:59;;;;;;;9.47;5.17;;;9.10;99.90;;;;;;4159672;28;20160;-61
2024/02/24 01:08:00;;;;;;;9.27;5.27;;;9.20;99.90;;;;;;4160602;28;20945;-61
2024/02/24 01:10:02;;;;;;;8.00;4.57;;;9.10;99.90;;;;;;4159944;28;20038;-57
2024/02/24 01:12:03;;;;;;;8.83;5.00;;;9.10;99.90;;;;;;4161357;28;20087;-59
2024/02/24 01:14:04;;;;;;;7.63;5.17;;;8.90;99.90;;;;;;4160346;28;20436;-60
2024/02/24 01:16:06;;;;;;;9.57;4.97;;;8.80;99.90;;;;;;4160996;28;20041;-56
2024/02/24 01:18:08;;;;;;;7.60;4.70;;;8.80;99.90;;;;;;4159518;28;20117;-57
2024/02/24 01:20:10;;;;;;;9.70;5.73;;;8.70;99.90;;;;;;4160860;28;20087;-61
2024/02/24 01:22:16;;;;;;;9.00;5.10;;;8.60;99.90;;;;;;4160585;28;20025;-60
2024/02/24 01:24:17;;;;;;;8.30;5.23;;;8.50;99.90;;;;;;4160995;28;20107;-57
2024/02/24 01:26:18;;;;;;;9.93;6.53;;;8.50;99.90;;;;;;4159432;28;20092;-57
2024/02/24 01:28:20;;;;;;;10.90;6.27;;;8.40;99.90;;;;;;4165025;28;20079;-59
2024/02/24 01:30:22;;;;;;;8.47;5.00;;;8.40;99.90;;;;;;4163392;28;20045;-58
2024/02/24 01:32:24;;;;;;;12.47;5.83;;;8.40;99.90;;;;;;4164106;28;20103;-62
2024/02/24 01:34:25;;;;;;;9.60;5.90;;;8.40;99.90;;;;;;4163244;28;20037;-56
2024/02/24 01:36:26;;;;;;;13.80;6.40;;;8.30;99.90;;;;;;4163434;28;20091;-58
2024/02/24 01:38:28;;;;;;;11.37;6.17;;;8.40;99.90;;;;;;4163997;28;20017;-56
2024/02/24 01:40:30;;;;;;;10.57;5.57;;;8.30;99.90;;;;;;4163006;28;20076;-59
2024/02/24 01:42:31;;;;;;;7.53;5.33;;;8.30;99.90;;;;;;4163444;28;20026;-60
2024/02/24 01:44:32;;;;;;;11.33;6.60;;;8.40;99.90;;;;;;4162871;28;20049;-54
2024/02/24 01:46:34;;;;;;;9.03;5.40;;;8.40;99.90;;;;;;4163720;28;20053;-57
2024/02/24 01:48:35;;;;;;;12.20;6.30;;;8.40;99.90;;;;;;4163512;28;20533;-58
2024/02/24 01:50:40;;;;;;;9.07;5.70;;;8.40;99.90;;;;;;4164039;28;20107;-57
2024/02/24 01:52:45;;;;;;;9.70;5.80;;;8.50;99.90;;;;;;4162828;28;20092;-56
2024/02/24 01:54:48;;;;;;;10.30;5.83;;;8.40;99.90;;;;;;4163471;28;20508;-55
2024/02/24 01:56:49;;;;;;;9.07;5.53;;;8.40;99.90;;;;;;4162584;28;20083;-59
2024/02/24 01:58:51;;;;;;;8.90;5.90;;;8.40;99.90;;;;;;4164802;28;20029;-59
2024/02/24 02:00:52;;;;;;;7.83;4.93;;;8.40;99.90;;;;;;4162384;28;20045;-57
2024/02/24 02:02:54;;;;;;;11.80;5.80;;;8.30;99.90;;;;;;4164262;28;20063;-57
2024/02/24 02:04:55;;;;;;;9.40;5.57;;;8.30;99.90;;;;;;4162758;28;20555;-54
2024/02/24 02:06:58;;;;;;;10.50;5.73;;;8.40;99.90;;;;;;4163398;28;20045;-58
2024/02/24 02:09:00;;;;;;;7.97;5.17;;;8.40;99.90;;;;;;4162948;28;20030;-59
2024/02/24 02:11:01;;;;;;;10.50;5.83;;;8.40;99.90;;;;;;4163670;28;20029;-57
2024/02/24 02:13:02;;;;;;;9.67;6.17;;;8.50;99.90;;;;;;4162623;28;20071;-55
2024/02/24 02:15:04;;;;;;;7.97;5.10;;;8.50;99.90;;;;;;4163293;28;20563;-57
2024/02/24 02:17:06;;;;;;;13.20;5.37;;;8.50;99.90;;;;;;4163318;28;20041;-59
2024/02/24 02:19:07;;;;;;;9.67;5.20;;;8.60;99.90;;;;;;4162453;28;20041;-56
2024/02/24 02:21:09;;;;;;;8.43;5.13;;;8.70;99.90;;;;;;4164172;28;20018;-60
2024/02/24 02:23:11;;;;;;;7.47;5.50;;;8.80;99.90;;;;;;4161839;28;20030;-56
2024/02/24 02:25:12;;;;;;;7.63;5.13;;;8.80;99.90;;;;;;4163364;28;20037;-56
2024/02/24 02:27:13;;;;;;;7.90;5.30;;;8.80;99.90;;;;;;4161867;28;20045;-54
2024/02/24 02:29:14;;;;;;;7.23;4.67;;;8.80;99.90;;;;;;4163540;28;20103;-57
2024/02/24 02:31:16;;;;;;;10.27;5.70;;;8.80;99.90;;;;;;4162076;28;20037;-59
2024/02/24 02:33:17;;;;;;;8.97;5.80;;;8.80;99.90;;;;;;4162771;28;20049;-56
2024/02/24 02:35:18;;;;;;;10.63;5.90;;;8.80;99.90;;;;;;4161532;28;20088;-59
2024/02/24 02:37:19;;;;;;;11.23;6.27;;;8.80;99.90;;;;;;4163296;28;20037;-58
2024/02/24 02:39:21;;;;;;;14.00;5.40;;;8.80;99.90;;;;;;4161016;28;20091;-57
2024/02/24 02:41:22;;;;;;;12.40;5.47;;;8.70;99.90;;;;;;4162056;28;20045;-58
2024/02/24 02:43:23;;;;;;;7.57;4.80;;;8.80;99.90;;;;;;4162010;28;20056;-59
2024/02/24 02:45:25;;;;;;;9.70;5.27;;;8.70;99.90;;;;;;4161972;28;20091;-56
2024/02/24 02:47:26;;;;;;;8.37;5.40;;;8.70;99.90;;;;;;4162841;28;20029;-54
2024/02/24 02:49:29;;;;;;;10.57;6.37;;;8.60;99.90;;;;;;4161833;28;20456;-61
2024/02/24 02:51:30;;;;;;;9.93;5.90;;;8.60;99.90;;;;;;4163532;28;20044;-58
2024/02/24 02:53:31;;;;;;;13.30;5.33;;;8.60;99.90;;;;;;4162220;28;20034;-59
2024/02/24 02:55:32;;;;;;;9.03;4.87;;;8.60;99.90;;;;;;4162719;28;20037;-58
2024/02/24 02:57:33;;;;;;;8.33;5.20;;;8.60;99.90;;;;;;4161372;28;20034;-57
2024/02/24 02:59:35;;;;;;;7.87;4.90;;;8.50;99.90;;;;;;4163428;28;20021;-60
2024/02/24 03:01:36;;;;;;;8.30;4.93;;;8.50;99.90;;;;;;4161735;28;20037;-55
2024/02/24 03:03:37;;;;;;;12.03;4.97;;;8.50;99.90;;;;;;4162789;28;20119;-57
2024/02/24 03:05:39;;;;;;;9.17;4.73;;;8.50;99.90;;;;;;4161929;28;20107;-54
2024/02/24 03:07:40;;;;;;;7.23;4.03;;;8.60;99.90;;;;;;4162594;28;20041;-58
2024/02/24 03:09:48;;;;;;;6.23;3.70;;;8.60;99.90;;;;;;4161658;28;20048;-57
2024/02/24 03:11:49;;;;;;;9.20;3.73;;;8.70;99.90;;;;;;4162926;28;20413;-54
2024/02/24 03:13:50;;;;;;;9.00;3.93;;;8.80;99.90;;;;;;4160580;28;20437;-61
2024/02/24 03:15:52;;;;;;;7.37;4.03;;;9.00;99.90;;;;;;4162100;28;20046;-59
2024/02/24 03:17:53;;;;;;;6.20;3.63;;;9.30;99.90;;;;;;4162315;28;20038;-60
2024/02/24 03:19:54;;;;;;;6.23;2.90;;;9.30;99.90;;;;;;4162070;28;20084;-62
2024/02/24 03:21:57;;;;;;;5.77;3.37;;;9.40;99.90;;;;;;4162090;28;20037;-56
2024/02/24 03:24:01;;;;;;;4.73;3.20;;;9.40;99.90;;;;;;4161167;28;20079;-57
2024/02/24 03:26:03;;;;;;;4.60;2.70;;;9.50;99.90;;;;;;4162657;28;20091;-58
2024/02/24 03:28:04;;;;;;;6.83;3.53;;;9.50;99.90;;;;;;4161780;28;20022;-58
2024/02/24 03:30:06;;;;;;;5.40;2.77;;;9.60;99.90;;;;;;4163418;28;20037;-54
2024/02/24 03:32:07;;;;;;;4.93;3.13;;;9.80;99.90;;;;;;4160930;28;20114;-60
2024/02/24 03:34:08;;;;;;;5.50;2.43;;;10.00;99.90;;;;;;4162184;28;20277;-61
2024/02/24 03:36:14;;;;;;;4.20;2.50;;;10.10;99.90;;;;;;4161734;28;20029;-58
2024/02/24 03:38:15;;;;;;;5.07;3.13;;;10.10;99.90;;;;;;4161622;28;20033;-58
2024/02/24 03:40:17;;;;;;;4.30;2.73;;;10.20;99.90;;;;;;4161525;28;20096;-56
2024/02/24 03:42:18;;;;;;;3.73;2.50;;;10.30;99.90;;;;;;4162153;28;20080;-57
2024/02/24 03:44:20;;;;;;;5.20;2.90;;;10.40;99.90;;;;;;4161188;28;20457;-55
2024/02/24 03:46:21;;;;;;;3.90;2.63;;;10.50;99.90;;;;;;4161930;28;20088;-59
2024/02/24 03:48:22;;;;;;;5.77;2.63;;;10.50;99.90;;;;;;4161190;28;20045;-58
2024/02/24 03:50:23;;;;;;;7.17;3.27;;;10.40;99.90;;;;;;4161203;28;20034;-60
2024/02/24 03:52:25;;;;;;;8.27;4.57;;;10.50;99.90;;;;;;4160855;28;20436;-58
2024/02/24 03:54:26;;;;;;;7.17;4.13;;;10.40;99.90;;;;;;4161710;28;20030;-57
2024/02/24 03:56:27;;;;;;;6.10;3.10;;;10.30;99.90;;;;;;4161531;28;20560;-58
2024/02/24 03:58:29;;;;;;;7.83;4.70;;;10.20;99.90;;;;;;4161470;28;20025;-58
2024/02/24 04:00:34;;;;;;;4.67;3.20;;;10.10;99.90;;;;;;4162591;28;20560;-58
2024/02/24 04:02:35;;;;;;;5.97;3.80;;;10.10;99.90;;;;;;4161424;28;20067;-57
2024/02/24 04:04:37;;;;;;;3.53;2.67;;;10.10;99.90;;;;;;4162033;28;20045;-57
2024/02/24 04:06:38;;;;;;;4.07;2.67;;;10.30;99.90;;;;;;4160734;28;20421;-55
2024/02/24 04:08:39;;;;;;;3.50;2.40;;;10.60;99.90;;;;;;4161561;28;20452;-58
2024/02/24 04:10:44;;;;;;;3.73;2.10;;;10.70;99.90;;;;;;4160160;28;20033;-51
2024/02/24 04:12:45;;;;;;;3.47;2.10;;;10.90;99.90;;;;;;4160285;28;20045;-57
2024/02/24 04:14:47;;;;;;;5.03;2.37;;;11.00;99.90;;;;;;4160143;28;20050;-60
2024/02/24 04:16:48;;;;;;;5.97;2.50;;;11.10;99.90;;;;;;4161752;28;20025;-49
2024/02/24 04:18:49;;;;;;;8.63;3.40;;;11.10;99.90;;;;;;4160609;28;20056;-56
2024/02/24 04:20:50;;;;;;;9.77;3.00;;;11.00;99.90;;;;;;4161079;28;20034;-60
2024/02/24 04:22:51;;;;;;;5.30;3.00;;;11.00;99.90;;;;;;4160852;28;20030;-55
2024/02/24 04:24:53;;;;;;;6.00;3.03;;;10.90;99.90;;;;;;4161202;28;20037;-59
2024/02/24 04:26:54;;;;;;;5.40;2.30;;;10.80;99.90;;;;;;4161122;28;20045;-58
2024/02/24 04:28:55;;;;;;;10.47;3.23;;;10.60;99.90;;;;;;4161302;28;20037;-59
2024/02/24 04:30:56;;;;;;;10.83;3.20;;;10.50;99.90;;;;;;4162359;28;20547;-58
2024/02/24 04:32:57;;;;;;;8.23;2.83;;;10.30;99.90;;;;;;4160896;28;20072;-59
2024/02/24 04:34:59;;;;;;;8.40;3.73;;;10.30;99.90;;;;;;4161445;28;20041;-58
2024/02/24 04:37:00;;;;;;;5.67;3.23;;;10.20;99.90;;;;;;4160042;28;20543;-56
2024/02/24 04:39:04;;;;;;;4.30;3.03;;;10.20;99.90;;;;;;4162048;28;20050;-56
2024/02/24 04:41:05;;;;;;;3.63;2.80;;;10.20;99.90;;;;;;4159775;28;20049;-61
2024/02/24 04:43:06;;;;;;;7.63;4.53;;;10.20;99.90;;;;;;4161299;28;20037;-60
2024/02/24 04:45:08;;;;;;;6.37;3.30;;;10.30;99.90;;;;;;4160858;28;20083;-57
2024/02/24 04:47:09;;;;;;;5.33;2.77;;;10.20;99.90;;;;;;4161831;28;20045;-59
2024/02/24 04:49:10;;;;;;;7.77;3.30;;;10.30;99.90;;;;;;4160072;28;20432;-55
2024/02/24 04:51:11;;;;;;;5.10;3.03;;;10.20;99.90;;;;;;4160857;28;20033;-56
2024/02/24 04:53:13;;;;;;;5.10;3.13;;;10.10;99.90;;;;;;4160243;28;20029;-57
2024/02/24 04:55:14;;;;;;;8.07;3.57;;;10.00;99.90;;;;;;4159739;28;20110;-58
2024/02/24 04:57:16;;;;;;;4.83;2.80;;;10.00;99.90;;;;;;4160549;28;20507;-59
2024/02/24 04:59:17;;;;;;;4.30;3.23;;;9.90;99.90;;;;;;4161168;28;20060;-59
2024/02/24 05:01:18;;;;;;;7.77;4.30;;;9.80;99.90;;;;;;4160166;28;20814;-57
2024/02/24 05:03:19;;;;;;;6.50;3.93;;;9.70;99.90;;;;;;4159818;28;20037;-61
2024/02/24 05:05:21;;;;;;;4.70;3.40;;;9.70;99.90;;;;;;4160969;28;20083;-58
2024/02/24 05:07:23;;;;;;;11.50;5.97;;;9.60;99.90;;;;;;4159880;28;20855;-59
2024/02/24 05:09:24;;;;;;;7.00;4.93;;;9.50;99.90;;;;;;4160723;28;20045;-52
2024/02/24 05:11:25;;;;;;;11.10;6.73;;;9.50;99.90;;;;;;4159885;28;20050;-49
2024/02/24 05:13:27;;;;;;;6.50;4.57;;;9.40;99.90;;;;;;4160944;28;20111;-57
2024/02/24 05:15:28;;;;;;;7.53;4.07;;;9.30;99.90;;;;;;4142528;28;20084;-61
2024/02/24 05:17:29;;;;;;;4.67;3.27;;;9.30;99.90;;;;;;4160794;28;20069;-64
2024/02/24 05:19:32;;;;;;;7.50;4.40;;;9.30;99.90;;;;;;4159905;28;20490;-58
2024/02/24 05:21:33;;;;;;;8.33;4.70;;;9.30;99.90;;;;;;4160524;28;20045;-56
2024/02/24 05:23:35;;;;;;;11.50;5.70;;;9.20;99.90;;;;;;4159766;28;20479;-58
2024/02/24 05:25:36;;;;;;;7.23;3.63;;;9.20;99.90;;;;;;4160392;28;20045;-62
2024/02/24 05:27:38;;;;;;;7.63;4.43;;;9.20;99.90;;;;;;4160441;28;20068;-57
2024/02/24 05:29:45;;;;;;;8.67;4.37;;;9.10;99.90;;;;;;4161026;28;20033;-63
2024/02/24 05:31:47;;;;;;;7.83;4.03;;;9.10;99.90;;;;;;4160639;28;20029;-61
2024/02/24 05:33:53;;;;;;;7.10;4.57;;;9.10;99.90;;;;;;4159827;28;20107;-60
2024/02/24 05:35:54;;;;;;;9.77;5.63;;;9.10;99.90;;;;;;4156917;28;20069;-59
2024/02/24 05:37:55;;;;;;;12.93;6.33;;;9.10;99.90;;;;;;4143372;28;20042;-59
2024/02/24 05:39:58;;;;;;;9.87;4.00;;;9.10;99.90;;;;;;4144732;28;20116;-60
2024/02/24 05:41:59;;;;;;;12.57;4.83;;;9.10;99.90;;;;;;4143334;28;20046;-54
2024/02/24 05:44:00;;;;;;;8.47;4.50;;;9.10;99.90;;;;;;4145294;28;20022;-59
2024/02/24 05:46:03;;;;;;;11.83;6.00;;;9.10;99.90;;;;;;4144157;28;20026;-58
2024/02/24 05:48:05;;;;;;;7.80;4.13;;;9.20;99.90;;;;;;4144791;28;20050;-61
2024/02/24 05:50:06;;;;;;;8.10;4.30;;;9.20;99.90;;;;;;4143990;28;20104;-60
2024/02/24 05:52:07;;;;;;;5.77;4.10;;;9.20;99.90;;;;;;4145174;28;20038;-58
2024/02/24 05:54:09;;;;;;;7.10;3.93;;;9.30;99.90;;;;;;4143532;28;20092;-59
2024/02/24 05:56:10;;;;;;;7.33;3.93;;;9.30;99.90;;;;;;4144477;28;20038;-56
2024/02/24 05:58:12;;;;;;;9.83;4.70;;;9.30;99.90;;;;;;4151008;28;20108;-58
2024/02/24 06:00:14;;;;;;;6.47;4.00;;;9.30;99.90;;;;;;4160682;28;20049;-59
2024/02/24 06:02:16;;;;;;;6.03;3.77;;;9.40;99.90;;;;;;4160039;28;20064;-57
2024/02/24 06:04:18;;;;;;;11.33;5.47;;;9.40;99.90;;;;;;4159770;28;20112;-58
2024/02/24 06:06:19;;;;;;;10.07;5.17;;;9.40;99.90;;;;;;4160454;28;20486;-58
2024/02/24 06:08:20;;;;;;;7.90;4.50;;;9.40;99.90;;;;;;4159157;28;20448;-57
2024/02/24 06:10:22;;;;;;;6.53;4.40;;;9.40;99.90;;;;;;4160716;28;20065;-58
2024/02/24 06:12:23;;;;;;;11.37;4.50;;;9.40;99.90;;;;;;4141835;28;20046;-55
2024/02/24 06:14:24;;;;;;;7.83;4.40;;;9.40;99.90;;;;;;4164342;28;20029;-59
2024/02/24 06:16:26;;;;;;;5.17;3.60;;;9.40;99.90;;;;;;4162753;28;20485;-58
2024/02/24 06:18:30;;;;;;;9.37;4.20;;;9.50;99.90;;;;;;4147056;28;20092;-58
2024/02/24 06:20:31;;;;;;;6.83;3.90;;;9.50;99.90;;;;;;4146607;28;20026;-55
2024/02/24 06:22:32;;;;;;;8.23;4.33;;;9.50;99.90;;;;;;4147885;28;20034;-58
2024/02/24 06:24:34;;;;;;;11.10;4.97;;;9.60;99.90;;;;;;4146119;28;20104;-59
2024/02/24 06:26:35;;;;;;;11.43;4.33;;;9.60;99.90;;;;;;4147086;28;20054;-56
2024/02/24 06:28:38;;;;;;;6.57;4.03;;;9.70;99.90;;;;;;4156813;28;20045;-60
2024/02/24 06:30:39;;;;;;;9.23;5.27;;;9.70;99.90;;;;;;4145693;28;20398;-59
2024/02/24 06:32:41;;;;;;;10.03;4.17;;;9.70;99.90;;;;;;4162255;28;20045;-63
2024/02/24 06:34:43;;;;;;;8.20;4.97;;;9.70;99.90;;;;;;4163032;28;20045;-60
2024/02/24 06:36:44;;;;;;;10.30;4.57;;;9.70;99.90;;;;;;4162140;28;20452;-56
2024/02/24 06:38:45;;;;;;;8.37;4.20;;;9.70;99.90;;;;;;4162076;28;20033;-60
2024/02/24 06:40:46;;;;;;;6.47;4.33;;;9.70;99.90;;;;;;4145354;28;20426;-59
2024/02/24 06:42:48;;;;;;;4.67;3.40;;;9.70;99.90;;;;;;4161888;28;20033;-56
2024/02/24 06:44:49;;;;;;;6.20;4.20;;;9.80;99.90;;;;;;4161907;28;20119;-59
2024/02/24 06:46:50;;;;;;;7.53;4.37;;;9.90;99.90;;;;;;4161405;28;20111;-62
2024/02/24 06:48:52;;;;;;;6.73;4.13;;;10.00;99.90;;;;;;4162820;28;20115;-56
2024/02/24 06:50:53;;;;;;;6.13;3.73;;;10.00;99.90;;;;;;4162452;28;20469;-58
2024/02/24 06:52:54;;;;;;;6.93;4.17;;;9.90;99.90;;;;;;4163669;28;20030;-55
2024/02/24 06:54:55;;;;;;;5.77;4.07;;;9.90;99.90;;;;;;4161863;28;20845;-60
2024/02/24 06:56:57;;;;;;;7.00;3.87;;;9.90;99.90;;;;;;4162449;28;20045;-58
2024/02/24 06:58:59;;;;;;;9.83;4.97;;;10.00;99.90;;;;;;4162289;28;20022;-55
2024/02/24 07:01:00;;;;;;;9.30;4.53;;;10.00;99.90;;;;;;4162338;28;20444;-58
2024/02/24 07:03:02;;;;;;;5.73;4.17;;;10.00;99.90;;;;;;4162115;28;20037;-58
2024/02/24 07:05:07;;;;;;;9.30;4.60;;;10.00;99.90;;;;;;4162723;28;20359;-59
2024/02/24 07:07:08;;;;;;;10.00;5.23;;;10.00;99.90;;;;;;4161245;28;20014;-62
2024/02/24 07:09:09;;;;;;;7.90;4.50;;;9.90;99.90;;;;;;4161689;28;20095;-62
2024/02/24 07:11:11;;;;;;;8.80;4.70;;;9.80;99.90;;;;;;4162316;28;20034;-60
2024/02/24 07:13:12;;;;;;;12.20;5.00;;;9.70;99.90;;;;;;4161919;28;20025;-59
2024/02/24 07:15:13;;;;;;;8.50;4.97;;;9.70;99.90;;;;;;4162307;28;20075;-59
2024/02/24 07:17:14;;;;;;;8.00;4.80;;;9.70;99.90;;;;;;4161676;28;20033;-60
2024/02/24 07:19:15;;;;;;;8.97;4.77;;;9.70;99.90;;;;;;4162921;28;20465;-55
2024/02/24 07:21:17;;;;;;;11.93;5.33;;;9.60;99.90;;;;;;4160802;28;20100;-57
2024/02/24 07:23:18;;;;;;;9.00;5.27;;;9.60;99.90;;;;;;4161866;28;20079;-58
2024/02/24 07:25:19;;;;;;;9.33;5.10;;;9.60;99.90;;;;;;4153604;28;20026;-60
2024/02/24 07:27:20;;;;;;;8.63;5.33;;;9.60;99.90;;;;;;4146447;28;20088;-64
2024/02/24 07:29:22;;;;;;;12.80;5.63;;;9.70;99.90;;;;;;4145093;28;20449;-62
2024/02/24 07:31:23;;;;;;;8.77;5.43;;;9.70;99.90;;;;;;4146768;28;20033;-57
2024/02/24 07:33:24;;;;;;;11.33;6.00;;;9.70;99.90;;;;;;4145363;28;20080;-60
2024/02/24 07:35:25;;;;;;;10.03;5.13;;;9.70;99.90;;;;;;4155825;28;20045;-56
2024/02/24 07:37:26;;;;;;;9.07;5.47;;;9.70;99.90;;;;;;4161200;28;20095;-59
2024/02/24 07:39:28;;;;;;;13.67;5.83;;;9.70;99.90;;;;;;4161205;28;20099;-58
2024/02/24 07:41:29;;;;;;;10.70;5.40;;;9.70;99.90;;;;;;4162214;28;20025;-62
2024/02/24 07:43:30;;;;;;;13.67;5.57;;;9.90;99.90;;;;;;4161103;28;20090;-64
2024/02/24 07:45:32;;;;;;;11.43;4.77;;;10.00;99.90;;;;;;4162049;28;20091;-57
2024/02/24 07:47:33;;;;;;;9.20;5.00;;;10.10;99.90;;;;;;4160857;28;20520;-57
2024/02/24 07:49:35;;;;;;;7.77;4.87;;;10.10;99.90;;;;;;4162718;28;20088;-62
2024/02/24 07:51:36;;;;;;;12.77;5.90;;;10.20;99.90;;;;;;4160934;28;20049;-61
2024/02/24 07:53:37;;;;;;;11.83;5.50;;;10.30;99.90;;;;;;4162417;28;20152;-60
2024/02/24 07:55:39;;;;;;;12.73;5.40;;;10.40;99.90;;;;;;4161081;28;20095;-58
2024/02/24 07:57:40;;;;;;;9.30;5.63;;;10.40;99.90;;;;;;4162231;28;20025;-54
2024/02/24 07:59:41;;;;;;;12.03;5.70;;;10.40;99.90;;;;;;4160053;28;20042;-60
2024/02/24 08:01:43;;;;;;;11.53;5.83;;;10.40;99.90;;;;;;4161741;28;20037;-59
2024/02/24 08:03:45;;;;;;;11.20;6.13;;;10.50;99.90;;;;;;4161157;28;20025;-59
2024/02/24 08:05:46;;;;;;;10.83;5.80;;;10.50;99.90;;;;;;4160527;28;20114;-59
2024/02/24 08:07:48;;;;;;;13.67;6.50;;;10.60;99.90;;;;;;4160737;28;20049;-60
2024/02/24 08:09:49;;;;;;;10.83;5.90;;;10.60;99.90;;;;;;4160833;28;20041;-58
2024/02/24 08:11:51;;;;;;;11.97;5.73;;;10.60;99.90;;;;;;4160630;28;20033;-61
2024/02/24 08:13:53;;;;;;;12.90;6.67;;;10.70;99.90;;;;;;4159681;28;20091;-60
2024/02/24 08:15:54;;;;;;;10.63;5.43;;;10.70;99.90;;;;;;4161929;28;20041;-59
2024/02/24 08:17:56;;;;;;;9.93;5.53;;;10.70;99.90;;;;;;4159527;28;20551;-59
2024/02/24 08:19:57;;;;;;;11.17;5.90;;;10.80;99.90;;;;;;4161593;28;20037;-58
2024/02/24 08:21:58;;;;;;;11.63;6.83;;;10.80;99.90;;;;;;4160186;28;20034;-58
2024/02/24 08:24:05;;;;;;;11.80;6.37;;;10.90;99.90;;;;;;4162269;28;20883;-59
2024/02/24 08:26:07;;;;;;;9.53;5.50;;;11.00;99.90;;;;;;4160345;28;20095;-59
2024/02/24 08:28:08;;;;;;;24.57;6.80;;;11.00;99.90;;;;;;4161358;28;20045;-55
2024/02/24 08:30:10;;;;;;;8.73;5.80;;;11.10;99.90;;;;;;4142541;28;20125;-56
2024/02/24 08:32:11;;;;;;;11.00;5.93;;;11.10;99.90;;;;;;4160317;28;20460;-58
2024/02/24 08:34:12;;;;;;;13.33;6.27;;;11.20;99.90;;;;;;4160062;28;20072;-60
2024/02/24 08:36:17;;;;;;;12.67;5.87;;;11.30;99.90;;;;;;4161409;28;20033;-58
2024/02/24 08:38:18;;;;;;;13.83;6.20;;;11.40;99.90;;;;;;4158686;28;20041;-59
2024/02/24 08:40:20;;;;;;;10.73;6.80;;;11.40;99.90;;;;;;4159844;28;20432;-54
2024/02/24 08:42:21;;;;;;;14.20;6.47;;;11.50;99.90;;;;;;4160267;28;20025;-58
2024/02/24 08:44:22;;;;;;;11.37;6.30;;;11.50;99.90;;;;;;4160136;28;20033;-56
2024/02/24 08:46:23;;;;;;;13.87;7.93;;;11.60;99.90;;;;;;4160723;28;20548;-57
2024/02/24 08:48:25;;;;;;;10.60;6.50;;;11.60;99.90;;;;;;4159577;28;20057;-58
2024/02/24 08:50:26;;;;;;;12.40;6.13;;;11.60;99.90;;;;;;4160946;28;20041;-54
2024/02/24 08:52:27;;;;;;;13.37;7.07;;;11.60;99.90;;;;;;4159822;28;20045;-57
2024/02/24 08:54:29;;;;;;;13.43;5.73;;;11.70;99.90;;;;;;4160707;28;20041;-57
2024/02/24 08:56:31;;;;;;;16.00;6.83;;;11.80;99.90;;;;;;4159687;28;20392;-58
2024/02/24 08:58:32;;;;;;;12.03;6.70;;;11.80;99.90;;;;;;4161270;28;20033;-55
2024/02/24 09:00:34;;;;;;;8.53;5.17;;;11.90;99.90;;;;;;4159960;28;20083;-60
2024/02/24 09:02:36;;;;;;;14.00;6.70;;;11.90;99.90;;;;;;4160998;28;20092;-51
2024/02/24 09:04:40;;;;;;;12.73;7.90;;;11.80;99.90;;;;;;4159436;28;20037;-54
2024/02/24 09:06:41;;;;;;;9.53;5.43;;;11.90;99.90;;;;;;4160446;28;20834;-57
2024/02/24 09:08:42;;;;;;;10.50;5.60;;;12.00;99.90;;;;;;4159109;28;20061;-56
2024/02/24 09:10:43;;;;;;;9.30;5.63;;;12.10;99.90;;;;;;4160352;28;20563;-58
2024/02/24 09:12:44;;;;;;;10.10;5.00;;;12.20;99.90;;;;;;4159821;28;20072;-58
2024/02/24 09:14:46;;;;;;;8.60;4.97;;;12.20;99.90;;;;;;4159553;28;20559;-58
2024/02/24 09:16:47;;;;;;;7.50;4.80;;;12.30;99.90;;;;;;4159560;28;20029;-56
2024/02/24 09:18:48;;;;;;;8.40;4.70;;;12.30;99.90;;;;;;4159843;28;20041;-56
2024/02/24 09:20:49;;;;;;;12.93;5.37;;;12.30;99.90;;;;;;4161338;28;20033;-56
2024/02/24 09:22:50;;;;;;;8.47;4.93;;;12.30;99.90;;;;;;4160024;28;20147;-57
2024/02/24 09:24:52;;;;;;;10.03;5.00;;;12.30;99.90;;;;;;4161414;28;20033;-59
2024/02/24 09:26:53;;;;;;;7.73;4.20;;;12.30;99.90;;;;;;4159901;28;20050;-59
2024/02/24 09:28:54;;;;;;;9.83;4.83;;;12.40;99.90;;;;;;4160868;28;20099;-58
2024/02/24 09:30:55;;;;;;;9.23;5.30;;;12.40;99.90;;;;;;4160655;28;20458;-58
2024/02/24 09:32:57;;;;;;;9.80;5.00;;;12.50;99.90;;;;;;4160248;28;20543;-57
2024/02/24 09:34:58;;;;;;;7.70;5.23;;;12.50;99.90;;;;;;4159656;28;20045;-57
2024/02/24 09:37:03;;;;;;;7.90;5.60;;;12.50;99.90;;;;;;4161080;28;20029;-58
2024/02/24 09:39:04;;;;;;;10.97;6.03;;;12.60;99.90;;;;;;4160032;28;20469;-55
2024/02/24 09:41:05;;;;;;;9.47;5.10;;;12.60;99.90;;;;;;4160446;28;20029;-55
2024/02/24 09:43:08;;;;;;;7.83;4.80;;;12.60;99.90;;;;;;4160237;28;20108;-56
2024/02/24 09:45:14;;;;;;;10.17;6.27;;;12.50;99.90;;;;;;4159675;28;20437;-58
2024/02/24 09:47:16;;;;;;;8.43;4.70;;;12.50;99.90;;;;;;4159706;28;20029;-52
2024/02/24 09:49:18;;;;;;;9.77;5.17;;;12.50;99.90;;;;;;4163434;28;20049;-60
2024/02/24 09:51:19;;;;;;;8.77;5.27;;;12.40;99.90;;;;;;4163913;28;20425;-58
2024/02/24 09:53:21;;;;;;;11.97;5.73;;;12.40;99.90;;;;;;4163093;28;20033;-56
2024/02/24 09:55:22;;;;;;;7.90;4.50;;;12.40;99.90;;;;;;4163232;28;20056;-56
2024/02/24 09:57:27;;;;;;;9.53;5.33;;;12.50;99.90;;;;;;4162392;28;20432;-54
2024/02/24 09:59:29;;;;;;;8.13;5.33;;;12.40;99.90;;;;;;4164222;28;20025;-55
2024/02/24 10:01:36;;;;;;;11.43;5.70;;;12.40;99.90;;;;;;4163010;28;20064;-58
2024/02/24 10:03:40;;;;;;;8.83;5.83;;;12.50;99.90;;;;;;4164123;28;20048;-55
2024/02/24 10:05:43;;;;;;;8.93;5.47;;;12.50;99.90;;;;;;4162190;28;20833;-58
2024/02/24 10:07:46;;;;;;;10.23;5.53;;;12.40;99.90;;;;;;4163628;28;20091;-55
2024/02/24 10:09:47;;;;;;;7.80;5.30;;;12.30;99.90;;;;;;4162228;28;20513;-55
2024/02/24 10:11:48;;;;;;;11.70;5.47;;;12.40;99.90;;;;;;4163320;28;20037;-57
2024/02/24 10:13:49;;;;;;;10.00;5.80;;;12.40;99.90;;;;;;4162178;28;20091;-57
2024/02/24 10:15:51;;;;;;;10.50;5.83;;;12.30;99.90;;;;;;4163781;28;20025;-54
2024/02/24 10:17:57;;;;;;;8.97;5.70;;;12.30;99.90;;;;;;4162349;28;20165;-58
2024/02/24 10:19:58;;;;;;;11.50;5.93;;;12.30;99.90;;;;;;4162174;28;20037;-59
2024/02/24 10:22:06;;;;;;;11.43;6.17;;;12.40;99.90;;;;;;4162755;28;20029;-58
2024/02/24 10:24:07;;;;;;;17.57;7.83;;;12.40;99.90;;;;;;4163095;28;20026;-55
2024/02/24 10:26:09;;;;;;;7.67;5.00;;;12.50;99.90;;;;;;4162250;28;20096;-58
2024/02/24 10:28:11;;;;;;;11.37;5.50;;;12.50;99.90;;;;;;4162732;28;20033;-54
2024/02/24 10:30:12;;;;;;;14.40;7.10;;;12.50;99.90;;;;;;4162941;28;20033;-54
2024/02/24 10:32:14;;;;;;;12.07;7.20;;;12.50;99.90;;;;;;4162081;28;20037;-56
2024/02/24 10:34:16;;;;;;;14.27;6.60;;;12.50;99.90;;;;;;4163526;28;20091;-58
2024/02/24 10:36:18;;;;;;;8.03;5.67;;;12.60;99.90;;;;;;4162157;28;20470;-58